createdAt,value
2022-08-20T00:02:09.598Z,20.27
2022-08-20T00:04:36.742Z,20.28
2022-08-20T00:07:06.341Z,20.21
2022-08-20T00:09:36.436Z,20.12
2022-08-20T00:12:05.484Z,20.08
2022-08-20T00:14:33.993Z,20.08
2022-08-20T00:17:01.707Z,20.01
2022-08-20T00:19:29.098Z,19.98
2022-08-20T00:21:58.046Z,19.95
2022-08-20T00:24:25.797Z,19.92
2022-08-20T00:26:52.930Z,19.89
2022-08-20T00:29:20.426Z,19.88
2022-08-20T00:31:48.762Z,19.87
2022-08-20T00:34:15.374Z,19.91
2022-08-20T00:36:42.001Z,19.88
2022-08-20T00:39:08.542Z,19.80
2022-08-20T00:41:35.103Z,19.80
2022-08-20T00:44:18.514Z,19.80
2022-08-20T00:46:46.597Z,19.80
2022-08-20T00:49:18.023Z,19.83
2022-08-20T00:51:53.313Z,19.87
2022-08-20T00:54:25.087Z,19.78
2022-08-20T00:57:05.979Z,19.75
2022-08-20T00:59:36.240Z,19.75
2022-08-20T01:02:05.523Z,19.77
2022-08-20T01:04:34.192Z,19.70
2022-08-20T01:07:01.419Z,19.67
2022-08-20T01:09:50.555Z,19.57
2022-08-20T01:12:16.243Z,19.51
2022-08-20T01:14:45.363Z,19.49
2022-08-20T01:17:18.211Z,19.55
2022-08-20T01:19:53.005Z,19.58
2022-08-20T01:22:50.788Z,19.59
2022-08-20T01:25:29.337Z,19.54
2022-08-20T01:27:56.289Z,19.43
2022-08-20T01:30:27.830Z,19.36
2022-08-20T01:32:55.183Z,19.35
2022-08-20T01:35:22.802Z,19.31
2022-08-20T01:37:49.434Z,19.28
2022-08-20T01:40:29.458Z,19.30
2022-08-20T01:42:59.106Z,19.33
2022-08-20T01:45:30.248Z,19.33
2022-08-20T01:47:57.669Z,19.34
2022-08-20T01:50:27.664Z,19.35
2022-08-20T01:53:24.590Z,19.31
2022-08-20T01:55:51.155Z,19.26
2022-08-20T01:58:18.506Z,19.29
2022-08-20T02:00:45.340Z,19.28
2022-08-20T02:03:11.937Z,19.33
2022-08-20T02:05:38.632Z,19.36
2022-08-20T02:08:05.821Z,19.37
2022-08-20T02:10:32.820Z,19.33
2022-08-20T02:13:00.990Z,19.23
2022-08-20T02:15:34.905Z,19.15
2022-08-20T02:18:11.315Z,19.11
2022-08-20T02:20:39.268Z,19.07
2022-08-20T02:23:06.484Z,19.04
2022-08-20T02:25:36.359Z,19.01
2022-08-20T02:28:06.276Z,19.02
2022-08-20T02:30:37.112Z,19.02
2022-08-20T02:33:06.760Z,19.03
2022-08-20T02:35:34.412Z,19.02
2022-08-20T02:38:01.675Z,19.08
2022-08-20T02:40:30.622Z,19.13
2022-08-20T02:43:01.595Z,19.16
2022-08-20T02:45:30.466Z,19.20
2022-08-20T02:47:58.911Z,19.20
2022-08-20T02:50:26.547Z,19.21
2022-08-20T02:52:53.268Z,19.15
2022-08-20T02:55:27.824Z,19.10
2022-08-20T02:57:58.737Z,19.06
2022-08-20T03:00:26.850Z,19.00
2022-08-20T03:02:53.547Z,18.99
2022-08-20T03:05:20.235Z,18.96
2022-08-20T03:07:49.423Z,18.99
2022-08-20T03:10:16.961Z,18.98
2022-08-20T03:12:43.528Z,18.99
2022-08-20T03:15:17.486Z,18.98
2022-08-20T03:17:45.226Z,18.95
2022-08-20T03:20:13.366Z,18.89
2022-08-20T03:22:40.119Z,18.85
2022-08-20T03:25:07.635Z,18.83
2022-08-20T03:27:36.446Z,18.81
2022-08-20T03:30:06.100Z,18.85
2022-08-20T03:32:32.723Z,18.86
2022-08-20T03:34:59.306Z,18.84
2022-08-20T03:37:29.979Z,18.80
2022-08-20T03:39:56.723Z,18.74
2022-08-20T03:42:23.377Z,18.75
2022-08-20T03:44:59.093Z,18.72
2022-08-20T03:47:26.924Z,18.74
2022-08-20T03:50:01.426Z,18.73
2022-08-20T03:52:29.329Z,18.70
2022-08-20T03:54:56.566Z,18.74
2022-08-20T03:57:23.682Z,18.74
2022-08-20T03:59:54.644Z,18.76
2022-08-20T04:02:25.434Z,18.75
2022-08-20T04:04:52.059Z,18.74
2022-08-20T04:07:25.895Z,18.75
2022-08-20T04:09:56.422Z,18.78
2022-08-20T04:12:25.195Z,18.79
2022-08-20T04:14:54.170Z,18.80
2022-08-20T04:17:21.051Z,18.82
2022-08-20T04:19:49.167Z,18.84
2022-08-20T04:22:15.789Z,18.87
2022-08-20T04:24:43.575Z,18.89
2022-08-20T04:27:10.957Z,18.86
2022-08-20T04:29:37.654Z,18.83
2022-08-20T04:32:06.223Z,18.79
2022-08-20T04:34:32.916Z,18.81
2022-08-20T04:36:59.533Z,18.78
2022-08-20T04:39:26.841Z,18.78
2022-08-20T04:41:53.440Z,18.84
2022-08-20T04:44:21.768Z,18.88
2022-08-20T04:46:49.002Z,18.92
2022-08-20T04:49:15.783Z,18.96
2022-08-20T04:51:42.336Z,18.98
2022-08-20T04:54:09.170Z,19.09
2022-08-20T04:56:39.713Z,19.09
2022-08-20T04:59:07.433Z,19.20
2022-08-20T05:01:34.685Z,19.33
2022-08-20T05:04:01.877Z,19.39
2022-08-20T05:06:32.909Z,19.43
2022-08-20T05:09:00.368Z,19.55
2022-08-20T05:11:36.109Z,19.61
2022-08-20T05:14:11.391Z,19.63
2022-08-20T05:16:40.518Z,19.71
2022-08-20T05:19:09.138Z,19.76
2022-08-20T05:21:35.943Z,19.74
2022-08-20T05:24:02.918Z,19.76
2022-08-20T05:26:29.536Z,19.83
2022-08-20T05:28:58.819Z,19.89
2022-08-20T05:31:31.375Z,20.27
2022-08-20T05:34:12.029Z,21.09
2022-08-20T05:36:50.156Z,21.76
2022-08-20T05:39:19.474Z,22.27
2022-08-20T05:41:46.753Z,22.73
2022-08-20T05:44:14.675Z,23.46
2022-08-20T05:46:43.475Z,23.85
2022-08-20T05:49:13.604Z,24.02
2022-08-20T05:51:40.285Z,24.36
2022-08-20T05:54:07.494Z,24.25
2022-08-20T05:56:34.984Z,23.70
2022-08-20T05:59:04.328Z,23.19
2022-08-20T06:01:36.081Z,22.82
2022-08-20T06:04:21.639Z,23.21
2022-08-20T06:06:48.565Z,24.27
2022-08-20T06:09:31.031Z,24.85
2022-08-20T06:11:59.568Z,25.34
2022-08-20T06:14:26.618Z,25.20
2022-08-20T06:16:57.276Z,24.94
2022-08-20T06:19:26.407Z,24.26
2022-08-20T06:21:53.814Z,23.53
2022-08-20T06:24:21.340Z,23.13
2022-08-20T06:26:48.148Z,22.82
2022-08-20T06:29:16.155Z,23.61
2022-08-20T06:31:42.686Z,23.93
2022-08-20T06:34:09.302Z,24.83
2022-08-20T06:36:35.826Z,25.33
2022-08-20T06:39:02.420Z,25.97
2022-08-20T06:41:36.125Z,26.06
2022-08-20T06:44:03.661Z,26.87
2022-08-20T06:46:30.244Z,27.16
2022-08-20T06:48:56.864Z,27.77
2022-08-20T06:51:23.399Z,28.38
2022-08-20T06:53:50.007Z,29.12
2022-08-20T06:56:16.656Z,28.72
2022-08-20T06:58:43.961Z,29.29
2022-08-20T07:01:12.228Z,29.70
2022-08-20T07:03:41.971Z,30.32
2022-08-20T07:06:21.003Z,30.34
2022-08-20T07:08:47.531Z,30.94
2022-08-20T07:11:14.123Z,30.45
2022-08-20T07:13:41.496Z,29.72
2022-08-20T07:16:08.121Z,30.54
2022-08-20T07:18:34.783Z,30.17
2022-08-20T07:21:01.339Z,29.98
2022-08-20T07:23:28.366Z,30.57
2022-08-20T07:25:55.796Z,30.17
2022-08-20T07:28:25.364Z,28.46
2022-08-20T07:31:13.844Z,28.33
2022-08-20T07:33:44.301Z,27.90
2022-08-20T07:36:12.857Z,26.97
2022-08-20T07:38:39.497Z,27.70
2022-08-20T07:41:09.970Z,28.22
2022-08-20T07:43:36.582Z,29.15
2022-08-20T07:46:08.856Z,28.96
2022-08-20T07:48:40.308Z,28.40
2022-08-20T07:51:08.640Z,27.59
2022-08-20T07:53:37.741Z,28.82
2022-08-20T07:56:07.113Z,29.11
2022-08-20T07:58:36.586Z,29.90
2022-08-20T08:01:05.642Z,30.87
2022-08-20T08:03:39.462Z,31.79
2022-08-20T08:06:28.478Z,32.83
2022-08-20T08:09:08.618Z,33.39
2022-08-20T08:11:38.434Z,32.86
2022-08-20T08:14:08.188Z,33.44
2022-08-20T08:16:36.827Z,33.53
2022-08-20T08:19:06.584Z,34.44
2022-08-20T08:21:33.228Z,34.73
2022-08-20T08:23:59.949Z,34.88
2022-08-20T08:26:28.808Z,33.87
2022-08-20T08:28:55.686Z,34.49
2022-08-20T08:31:25.797Z,32.94
2022-08-20T08:33:52.417Z,33.11
2022-08-20T08:36:19.065Z,33.39
2022-08-20T08:38:46.451Z,32.97
2022-08-20T08:41:17.881Z,33.40
2022-08-20T08:43:47.690Z,33.27
2022-08-20T08:46:18.689Z,34.21
2022-08-20T08:48:48.474Z,32.85
2022-08-20T08:51:22.167Z,32.00
2022-08-20T08:53:53.509Z,31.58
2022-08-20T08:56:22.215Z,31.03
2022-08-20T08:58:49.744Z,31.95
2022-08-20T09:01:55.361Z,31.79
2022-08-20T09:04:09.507Z,32.08
2022-08-20T09:06:36.696Z,33.35
2022-08-20T09:09:06.637Z,33.51
2022-08-20T09:11:46.279Z,33.43
2022-08-20T09:14:13.550Z,34.02
2022-08-20T09:16:45.769Z,33.97
2022-08-20T09:19:19.518Z,35.44
2022-08-20T09:21:46.122Z,36.20
2022-08-20T09:24:12.881Z,35.70
2022-08-20T09:26:39.537Z,34.61
2022-08-20T09:29:06.184Z,35.79
2022-08-20T09:31:32.870Z,35.68
2022-08-20T09:33:59.771Z,35.89
2022-08-20T09:36:31.945Z,35.17
2022-08-20T09:38:59.917Z,34.24
2022-08-20T09:41:26.467Z,34.20
2022-08-20T09:43:53.295Z,35.27
2022-08-20T09:46:20.025Z,35.38
2022-08-20T09:48:54.108Z,35.87
2022-08-20T09:51:20.816Z,35.81
2022-08-20T09:53:47.406Z,36.35
2022-08-20T09:56:14.163Z,35.90
2022-08-20T09:58:53.300Z,35.41
2022-08-20T10:01:21.743Z,34.71
2022-08-20T10:03:50.051Z,34.89
2022-08-20T10:06:20.874Z,35.38
2022-08-20T10:08:49.313Z,34.63
2022-08-20T10:11:16.605Z,34.08
2022-08-20T10:13:46.490Z,34.02
2022-08-20T10:16:14.405Z,32.90
2022-08-20T10:18:40.949Z,32.92
2022-08-20T10:21:11.787Z,34.02
2022-08-20T10:23:38.974Z,34.91
2022-08-20T10:26:08.469Z,33.31
2022-08-20T10:28:35.745Z,34.24
2022-08-20T10:31:02.374Z,33.38
2022-08-20T10:33:28.979Z,33.51
2022-08-20T10:35:59.915Z,32.63
2022-08-20T10:38:26.893Z,32.46
2022-08-20T10:40:53.862Z,32.68
2022-08-20T10:43:20.512Z,32.58
2022-08-20T10:45:47.077Z,32.19
2022-08-20T10:48:16.144Z,32.28
2022-08-20T10:50:46.183Z,31.38
2022-08-20T10:53:13.907Z,31.25
2022-08-20T10:55:40.643Z,31.11
2022-08-20T10:58:08.276Z,31.35
2022-08-20T11:00:38.359Z,31.23
2022-08-20T11:03:04.943Z,31.28
2022-08-20T11:05:31.528Z,30.77
2022-08-20T11:07:59.669Z,30.69
2022-08-20T11:10:28.927Z,30.99
2022-08-20T11:12:55.599Z,31.29
2022-08-20T11:15:22.362Z,30.71
2022-08-20T11:17:49.053Z,31.18
2022-08-20T11:20:19.845Z,31.26
2022-08-20T11:22:47.236Z,31.69
2022-08-20T11:25:14.148Z,32.20
2022-08-20T11:27:44.360Z,31.81
2022-08-20T11:30:18.505Z,32.02
2022-08-20T11:32:45.306Z,31.19
2022-08-20T11:35:40.537Z,31.47
2022-08-20T11:37:59.507Z,31.41
2022-08-20T11:40:27.163Z,31.64
2022-08-20T11:43:13.568Z,31.64
2022-08-20T11:45:42.796Z,31.68
2022-08-20T11:48:09.431Z,31.75
2022-08-20T11:50:36.142Z,31.22
2022-08-20T11:53:02.759Z,31.10
2022-08-20T11:55:30.056Z,31.32
2022-08-20T11:57:59.822Z,31.67
2022-08-20T12:00:31.868Z,31.38
2022-08-20T12:03:01.385Z,31.58
2022-08-20T12:05:29.980Z,31.82
2022-08-20T12:07:57.994Z,31.86
2022-08-20T12:10:26.746Z,31.83
2022-08-20T12:12:53.961Z,31.99
2022-08-20T12:15:20.777Z,31.77
2022-08-20T12:17:47.429Z,31.69
2022-08-20T12:20:15.542Z,31.94
2022-08-20T12:22:42.641Z,31.71
2022-08-20T12:25:09.555Z,31.61
2022-08-20T12:27:37.576Z,31.96
2022-08-20T12:30:12.205Z,32.29
2022-08-20T12:32:39.385Z,32.44
2022-08-20T12:35:09.055Z,32.15
2022-08-20T12:37:36.148Z,32.37
2022-08-20T12:40:06.756Z,32.76
2022-08-20T12:42:33.735Z,33.03
2022-08-20T12:45:01.080Z,32.98
2022-08-20T12:47:30.435Z,32.16
2022-08-20T12:50:01.045Z,32.35
2022-08-20T12:52:29.421Z,32.33
2022-08-20T12:54:57.791Z,32.32
2022-08-20T12:57:32.945Z,32.26
2022-08-20T13:00:04.843Z,32.04
2022-08-20T13:02:31.527Z,32.17
2022-08-20T13:05:02.489Z,32.42
2022-08-20T13:07:32.197Z,32.52
2022-08-20T13:09:59.365Z,32.60
2022-08-20T13:12:26.147Z,32.78
2022-08-20T13:14:52.912Z,33.01
2022-08-20T13:17:20.369Z,32.94
2022-08-20T13:20:00.230Z,33.12
2022-08-20T13:22:26.856Z,33.06
2022-08-20T13:24:53.600Z,33.08
2022-08-20T13:27:24.653Z,32.95
2022-08-20T13:29:58.604Z,33.06
2022-08-20T13:32:26.170Z,33.12
2022-08-20T13:34:52.877Z,33.04
2022-08-20T13:37:25.484Z,33.18
2022-08-20T13:39:53.538Z,33.29
2022-08-20T13:42:20.394Z,33.25
2022-08-20T13:44:47.452Z,33.46
2022-08-20T13:47:19.168Z,33.14
2022-08-20T13:49:46.876Z,32.92
2022-08-20T13:52:17.000Z,33.08
2022-08-20T13:54:43.770Z,33.15
2022-08-20T13:57:16.882Z,33.27
2022-08-20T13:59:46.595Z,33.25
2022-08-20T14:02:14.203Z,33.28
2022-08-20T14:04:40.820Z,33.29
2022-08-20T14:07:14.572Z,32.84
2022-08-20T14:09:43.471Z,33.07
2022-08-20T14:12:11.710Z,33.15
2022-08-20T14:14:38.290Z,32.48
2022-08-20T14:17:17.934Z,32.97
2022-08-20T14:19:46.519Z,33.00
2022-08-20T14:22:13.418Z,33.08
2022-08-20T14:24:40.287Z,33.13
2022-08-20T14:27:08.530Z,33.30
2022-08-20T14:29:37.680Z,33.13
2022-08-20T14:32:05.619Z,32.96
2022-08-20T14:34:33.486Z,32.89
2022-08-20T14:37:10.115Z,32.74
2022-08-20T14:39:36.782Z,32.38
2022-08-20T14:42:03.385Z,32.18
2022-08-20T14:44:30.008Z,32.41
2022-08-20T14:46:56.723Z,32.56
2022-08-20T14:49:23.373Z,32.74
2022-08-20T14:51:49.950Z,32.83
2022-08-20T14:54:16.650Z,32.87
2022-08-20T14:56:43.269Z,32.87
2022-08-20T14:59:09.849Z,32.76
2022-08-20T15:01:36.479Z,32.74
2022-08-20T15:04:03.309Z,32.72
2022-08-20T15:06:31.231Z,32.48
2022-08-20T15:08:57.927Z,32.46
2022-08-20T15:11:24.596Z,32.18
2022-08-20T15:13:51.227Z,32.24
2022-08-20T15:16:17.770Z,32.44
2022-08-20T15:18:44.328Z,32.43
2022-08-20T15:21:11.215Z,32.08
2022-08-20T15:23:37.811Z,31.92
2022-08-20T15:26:05.531Z,31.84
2022-08-20T15:28:32.133Z,31.72
2022-08-20T15:30:58.715Z,31.70
2022-08-20T15:33:25.258Z,31.63
2022-08-20T15:35:51.807Z,31.52
2022-08-20T15:38:18.418Z,31.48
2022-08-20T15:40:45.060Z,31.47
2022-08-20T15:43:11.628Z,31.62
2022-08-20T15:45:38.288Z,31.73
2022-08-20T15:48:09.592Z,31.80
2022-08-20T15:50:48.138Z,31.85
2022-08-20T15:53:24.815Z,31.89
2022-08-20T15:56:03.171Z,31.90
2022-08-20T15:58:46.755Z,31.84
2022-08-20T16:01:56.512Z,31.83
2022-08-20T16:04:45.078Z,31.97
2022-08-20T16:07:19.902Z,32.05
2022-08-20T16:10:01.187Z,32.20
2022-08-20T16:12:35.935Z,32.36
2022-08-20T16:15:09.473Z,32.57
2022-08-20T16:17:43.541Z,32.63
2022-08-20T16:20:18.683Z,32.76
2022-08-20T16:22:47.140Z,32.90
2022-08-20T16:25:17.391Z,33.00
2022-08-20T16:28:09.791Z,32.99
2022-08-20T16:30:42.673Z,32.90
2022-08-20T16:33:27.971Z,32.74
2022-08-20T16:36:07.661Z,32.25
2022-08-20T16:38:34.501Z,31.92
2022-08-20T16:41:28.431Z,31.42
2022-08-20T16:44:03.987Z,31.40
2022-08-20T16:46:37.984Z,31.33
2022-08-20T16:49:13.729Z,31.25
2022-08-20T16:51:42.525Z,31.09
2022-08-20T16:54:10.678Z,30.88
2022-08-20T16:56:47.813Z,30.74
2022-08-20T16:59:27.142Z,30.73
2022-08-20T17:02:10.531Z,30.76
2022-08-20T17:04:58.436Z,30.72
2022-08-20T17:07:33.461Z,30.65
2022-08-20T17:10:27.278Z,30.59
2022-08-20T17:13:19.365Z,30.48
2022-08-20T17:15:57.894Z,30.21
2022-08-20T17:18:28.330Z,30.00
2022-08-20T17:21:04.690Z,29.80
2022-08-20T17:23:54.595Z,29.65
2022-08-20T17:26:55.171Z,29.47
2022-08-20T17:29:28.053Z,29.22
2022-08-20T17:32:00.443Z,29.00
2022-08-20T17:34:32.711Z,28.93
2022-08-20T17:37:19.258Z,28.67
2022-08-20T17:39:51.481Z,28.51
2022-08-20T17:42:25.640Z,28.42
2022-08-20T17:45:24.603Z,28.26
2022-08-20T17:47:52.772Z,28.06
2022-08-20T17:50:20.414Z,27.87
2022-08-20T17:52:53.438Z,27.73
2022-08-20T17:55:20.783Z,27.67
2022-08-20T17:57:51.858Z,27.59
2022-08-20T18:00:24.373Z,27.58
2022-08-20T18:02:59.313Z,27.66
2022-08-20T18:05:29.527Z,27.68
2022-08-20T18:08:25.750Z,27.74
2022-08-20T18:11:03.758Z,27.76
2022-08-20T18:13:48.281Z,27.78
2022-08-20T18:16:25.545Z,27.81
2022-08-20T18:18:59.500Z,27.82
2022-08-20T18:21:40.643Z,27.72
2022-08-20T18:24:24.536Z,27.45
2022-08-20T18:26:58.286Z,27.24
2022-08-20T18:29:39.041Z,27.03
2022-08-20T18:32:24.996Z,26.93
2022-08-20T18:34:53.033Z,26.82
2022-08-20T18:37:27.696Z,26.77
2022-08-20T18:40:16.572Z,26.77
2022-08-20T18:42:43.526Z,26.70
2022-08-20T18:45:10.321Z,26.72
2022-08-20T18:47:36.865Z,26.67
2022-08-20T18:50:16.468Z,26.55
2022-08-20T18:53:14.913Z,26.52
2022-08-20T18:55:47.432Z,26.43
2022-08-20T18:58:38.087Z,26.42
2022-08-20T19:01:11.520Z,26.34
2022-08-20T19:03:44.633Z,26.30
2022-08-20T19:06:35.747Z,26.23
2022-08-20T19:09:37.750Z,26.17
2022-08-20T19:12:16.289Z,26.11
2022-08-20T19:14:52.607Z,26.06
2022-08-20T19:17:55.407Z,26.02
2022-08-20T19:20:27.015Z,25.98
2022-08-20T19:22:59.741Z,25.95
2022-08-20T19:25:38.346Z,25.94
2022-08-20T19:28:21.386Z,25.90
2022-08-20T19:30:48.601Z,25.85
2022-08-20T19:33:25.352Z,25.78
2022-08-20T19:35:52.303Z,25.72
2022-08-20T19:38:18.863Z,25.57
2022-08-20T19:40:46.040Z,25.53
2022-08-20T19:43:17.614Z,25.53
2022-08-20T19:45:50.299Z,25.53
2022-08-20T19:48:44.339Z,25.54
2022-08-20T19:51:20.386Z,25.50
2022-08-20T19:53:49.372Z,25.45
2022-08-20T19:56:18.947Z,25.40
2022-08-20T19:58:45.957Z,25.29
2022-08-20T20:01:18.621Z,25.21
2022-08-20T20:04:04.546Z,25.18
2022-08-20T20:06:36.210Z,25.08
2022-08-20T20:09:15.125Z,24.96
2022-08-20T20:11:51.638Z,24.82
2022-08-20T20:14:22.910Z,24.67
2022-08-20T20:16:51.119Z,24.60
2022-08-20T20:19:27.994Z,24.68
2022-08-20T20:22:26.328Z,24.68
2022-08-20T20:25:22.585Z,24.70
2022-08-20T20:27:52.140Z,24.66
2022-08-20T20:30:38.230Z,24.62
2022-08-20T20:33:15.517Z,24.50
2022-08-20T20:35:43.716Z,24.35
2022-08-20T20:38:24.207Z,24.25
2022-08-20T20:41:02.381Z,24.17
2022-08-20T20:46:12.662Z,24.03
2022-08-20T20:48:55.293Z,23.97
2022-08-20T20:51:31.076Z,24.07
2022-08-20T20:54:01.833Z,24.11
2022-08-20T20:56:33.727Z,24.21
2022-08-20T20:59:06.258Z,24.23
2022-08-20T21:01:49.203Z,24.17
2022-08-20T21:04:22.225Z,24.09
2022-08-20T21:06:49.752Z,23.79
2022-08-20T21:09:16.824Z,23.65
2022-08-20T21:11:43.585Z,23.55
2022-08-20T21:14:10.250Z,23.44
2022-08-20T21:16:36.965Z,23.44
2022-08-20T21:19:07.873Z,23.44
2022-08-20T21:21:34.593Z,23.45
2022-08-20T21:24:01.248Z,23.42
2022-08-20T21:26:28.049Z,23.38
2022-08-20T21:28:55.082Z,23.34
2022-08-20T21:31:23.474Z,23.35
2022-08-20T21:33:49.943Z,23.38
2022-08-20T21:36:16.509Z,23.41
2022-08-20T21:38:43.063Z,23.44
2022-08-20T21:41:09.682Z,23.48
2022-08-20T21:43:36.281Z,23.57
2022-08-20T21:46:04.093Z,23.63
2022-08-20T21:48:32.316Z,23.66
2022-08-20T21:50:59.001Z,23.69
2022-08-20T21:53:25.575Z,23.63
2022-08-20T21:55:52.138Z,23.56
2022-08-20T21:58:20.293Z,23.50
2022-08-20T22:01:00.141Z,23.42
2022-08-20T22:03:30.458Z,23.36
2022-08-20T22:05:58.475Z,23.28
2022-08-20T22:08:28.797Z,23.27
2022-08-20T22:10:57.210Z,23.27
2022-08-20T22:13:24.206Z,23.22
2022-08-20T22:15:51.195Z,23.18
2022-08-20T22:18:18.475Z,23.19
2022-08-20T22:20:45.419Z,23.22
2022-08-20T22:23:12.736Z,23.21
2022-08-20T22:25:40.377Z,23.15
2022-08-20T22:28:07.801Z,23.26
2022-08-20T22:30:42.386Z,23.24
2022-08-20T22:33:13.150Z,23.28
2022-08-20T22:35:49.325Z,23.37
2022-08-20T22:38:16.827Z,23.55
2022-08-20T22:40:44.490Z,23.57
2022-08-20T22:43:11.911Z,23.53
2022-08-20T22:45:40.418Z,23.48
2022-08-20T22:48:08.132Z,23.30
2022-08-20T22:50:36.864Z,23.09
2022-08-20T22:53:04.375Z,23.06
2022-08-20T22:55:30.921Z,23.05
2022-08-20T22:57:57.658Z,23.09
2022-08-20T23:00:24.391Z,23.09
2022-08-20T23:02:53.383Z,23.14
2022-08-20T23:05:22.973Z,23.15
2022-08-20T23:07:53.809Z,23.15
2022-08-20T23:10:21.225Z,23.11
2022-08-20T23:12:47.825Z,23.00
2022-08-20T23:15:14.398Z,22.94
2022-08-20T23:17:41.253Z,22.88
2022-08-20T23:20:10.721Z,22.87
2022-08-20T23:22:37.449Z,22.89
2022-08-20T23:25:05.905Z,22.97
2022-08-20T23:27:35.283Z,23.00
2022-08-20T23:30:01.833Z,23.04
2022-08-20T23:32:28.382Z,23.10
2022-08-20T23:34:54.897Z,23.12
2022-08-20T23:37:21.487Z,23.17
2022-08-20T23:39:49.801Z,23.27
2022-08-20T23:42:16.869Z,23.30
2022-08-20T23:44:43.572Z,23.33
2022-08-20T23:47:11.966Z,23.39
2022-08-20T23:49:38.360Z,23.45
2022-08-20T23:52:05.018Z,23.51
2022-08-20T23:54:32.845Z,23.53
2022-08-20T23:57:01.107Z,23.50
2022-08-20T23:59:27.683Z,23.46
